Time;durP1;ratioP1;P1;durP2;ratioP2;P2;SDS_P1;SDS_P2;PMS_P1;PMS_P2;Temp;Humidity;BMP_temperature;BMP_pressure;BME280_temperature;BME280_humidity;BME280_pressure;Samples;Min_cycle;Max_cycle;Signal;HPM_P1;HPM_P2
2022/06/17 00:02:15;;;;;;;7.53;6.00;;;18.20;99.90;;;;;;5041313;28;20475;-64
2022/06/17 00:04:44;;;;;;;8.90;6.10;;;18.10;99.90;;;;;;5059557;28;20894;-64
2022/06/17 00:07:15;;;;;;;8.97;6.10;;;18.10;99.90;;;;;;5049851;28;20661;-65
2022/06/17 00:09:46;;;;;;;6.07;5.50;;;18.10;99.90;;;;;;5052171;28;20200;-65
2022/06/17 00:12:15;;;;;;;6.13;5.53;;;18.10;99.90;;;;;;5045254;28;20223;-65
2022/06/17 00:17:32;;;;;;;7.13;5.90;;;18.00;99.90;;;;;;5069464;28;20248;-65
2022/06/17 00:20:00;;;;;;;6.20;5.60;;;17.90;99.90;;;;;;5066787;28;20196;-65
2022/06/17 00:22:29;;;;;;;8.23;6.27;;;17.90;99.90;;;;;;5067088;28;20247;-65
2022/06/17 00:24:58;;;;;;;7.13;5.93;;;17.80;99.90;;;;;;5065749;28;20591;-65
2022/06/17 00:27:26;;;;;;;7.13;6.30;;;17.80;99.90;;;;;;5068280;28;20204;-65
2022/06/17 00:29:54;;;;;;;8.23;6.27;;;17.80;99.90;;;;;;5051140;28;20340;-65
2022/06/17 00:32:23;;;;;;;7.70;6.87;;;17.70;99.90;;;;;;5069902;28;20215;-65
2022/06/17 00:34:53;;;;;;;8.67;6.53;;;17.70;99.90;;;;;;5071739;28;20200;-65
2022/06/17 00:37:21;;;;;;;7.13;6.40;;;17.70;99.90;;;;;;5055085;28;20283;-65
2022/06/17 00:39:49;;;;;;;9.03;6.53;;;17.70;99.90;;;;;;5067372;28;20207;-65
2022/06/17 00:42:19;;;;;;;6.63;6.03;;;17.70;99.90;;;;;;5081611;28;20670;-65
2022/06/17 00:44:53;;;;;;;11.53;6.13;;;17.70;99.90;;;;;;5070066;28;20200;-65
2022/06/17 00:47:27;;;;;;;8.40;6.30;;;17.70;99.90;;;;;;5067704;28;20837;-66
2022/06/17 00:50:02;;;;;;;8.83;6.70;;;17.60;99.90;;;;;;5072039;28;20712;-65
2022/06/17 00:52:37;;;;;;;13.60;6.47;;;17.60;99.90;;;;;;5071557;28;20236;-65
2022/06/17 00:55:13;;;;;;;8.93;6.60;;;17.50;99.90;;;;;;5066698;28;20293;-65
2022/06/17 00:57:43;;;;;;;7.17;6.40;;;17.50;99.90;;;;;;5048118;28;20200;-65
2022/06/17 01:00:23;;;;;;;9.23;7.10;;;17.50;99.90;;;;;;5063700;28;20193;-65
2022/06/17 01:02:54;;;;;;;8.97;6.77;;;17.50;99.90;;;;;;5068890;28;20515;-65
2022/06/17 01:05:26;;;;;;;11.63;6.57;;;17.50;99.90;;;;;;5071439;28;20200;-65
2022/06/17 01:07:59;;;;;;;10.40;7.03;;;17.60;99.90;;;;;;5069264;28;20204;-65
2022/06/17 01:10:27;;;;;;;8.23;6.27;;;17.60;99.90;;;;;;5070408;28;20210;-65
2022/06/17 01:13:00;;;;;;;7.70;6.10;;;17.60;99.90;;;;;;5070957;28;20217;-65
2022/06/17 01:15:32;;;;;;;6.97;6.27;;;17.70;99.90;;;;;;5068311;28;20189;-65
2022/06/17 01:18:02;;;;;;;6.97;6.27;;;17.70;99.90;;;;;;5063991;28;20209;-65
2022/06/17 01:20:32;;;;;;;10.47;6.70;;;17.70;99.90;;;;;;5070010;28;20198;-64
2022/06/17 01:23:08;;;;;;;9.47;6.13;;;17.80;99.90;;;;;;5071780;28;20198;-65
2022/06/17 01:25:38;;;;;;;6.43;5.90;;;17.90;99.90;;;;;;5069909;28;20192;-65
2022/06/17 01:28:09;;;;;;;13.77;6.27;;;17.90;99.90;;;;;;5053715;28;20247;-65
2022/06/17 01:30:40;;;;;;;8.07;5.63;;;18.00;99.90;;;;;;5073115;28;20614;-65
2022/06/17 01:33:13;;;;;;;7.53;5.60;;;18.00;99.90;;;;;;5055674;28;20222;-65
2022/06/17 01:35:51;;;;;;;8.83;5.63;;;18.00;99.90;;;;;;5053196;28;20291;-65
2022/06/17 01:38:23;;;;;;;7.83;5.43;;;18.00;99.90;;;;;;5063153;28;20192;-65
2022/06/17 01:40:53;;;;;;;8.43;5.50;;;18.00;99.90;;;;;;5068468;28;20199;-65
2022/06/17 01:43:27;;;;;;;10.57;6.33;;;18.00;99.90;;;;;;5069734;28;20281;-65
2022/06/17 01:46:00;;;;;;;7.30;6.00;;;18.00;99.90;;;;;;5054102;28;20204;-65
2022/06/17 01:48:33;;;;;;;6.33;5.70;;;18.10;99.90;;;;;;5069486;28;20227;-65
2022/06/17 01:51:03;;;;;;;6.50;5.93;;;18.10;99.90;;;;;;5071569;28;20194;-65
2022/06/17 01:53:35;;;;;;;7.67;5.97;;;18.10;99.90;;;;;;5078750;28;20567;-65
2022/06/17 01:56:07;;;;;;;6.43;5.93;;;18.10;99.90;;;;;;5065894;28;20188;-65
2022/06/17 01:58:41;;;;;;;6.53;5.90;;;18.00;99.90;;;;;;5070703;28;20206;-65
2022/06/17 02:01:11;;;;;;;7.70;5.93;;;18.00;99.90;;;;;;5070068;28;20223;-65
2022/06/17 02:03:45;;;;;;;8.00;5.83;;;18.00;99.90;;;;;;5069766;28;20244;-64
2022/06/17 02:06:19;;;;;;;7.40;5.93;;;17.90;99.90;;;;;;5071068;28;20199;-65
2022/06/17 02:08:51;;;;;;;7.20;5.13;;;17.90;99.90;;;;;;5066314;28;20200;-65
2022/06/17 02:11:20;;;;;;;6.30;5.70;;;17.80;99.90;;;;;;5065642;28;20291;-64
2022/06/17 02:13:49;;;;;;;6.40;5.80;;;17.80;99.90;;;;;;5049211;28;20225;-65
2022/06/17 02:16:18;;;;;;;6.57;5.57;;;17.80;99.90;;;;;;5070139;28;20218;-64
2022/06/17 02:18:48;;;;;;;6.90;6.17;;;17.70;99.90;;;;;;5057355;28;20196;-64
2022/06/17 02:21:23;;;;;;;6.43;5.83;;;17.70;99.90;;;;;;5063349;28;20691;-65
2022/06/17 02:23:54;;;;;;;9.27;6.00;;;17.60;99.90;;;;;;5068636;28;20197;-65
2022/06/17 02:26:23;;;;;;;7.47;5.87;;;17.60;99.90;;;;;;5054361;28;20198;-65
2022/06/17 02:28:52;;;;;;;8.17;5.80;;;17.60;99.90;;;;;;5071552;28;20195;-65
2022/06/17 02:31:22;;;;;;;9.93;5.80;;;17.60;99.90;;;;;;5061678;28;20262;-65
2022/06/17 02:33:51;;;;;;;6.23;5.73;;;17.60;99.90;;;;;;5066122;28;20212;-65
2022/06/17 02:36:28;;;;;;;8.63;5.93;;;17.50;99.90;;;;;;5072030;28;20214;-67
2022/06/17 02:38:59;;;;;;;6.43;5.83;;;17.50;99.90;;;;;;5059673;28;20200;-65
2022/06/17 02:41:29;;;;;;;6.10;5.20;;;17.50;99.90;;;;;;5068902;28;20197;-65
2022/06/17 02:44:01;;;;;;;8.73;5.83;;;17.60;99.90;;;;;;5070146;28;20651;-65
2022/06/17 02:46:33;;;;;;;10.67;5.83;;;17.60;99.90;;;;;;5072803;28;20212;-65
2022/06/17 02:49:05;;;;;;;7.13;5.67;;;17.70;99.90;;;;;;5063577;28;20219;-65
2022/06/17 02:51:40;;;;;;;7.83;5.50;;;17.70;99.90;;;;;;5074970;28;20196;-65
2022/06/17 02:54:15;;;;;;;11.13;5.90;;;17.70;99.90;;;;;;5063563;28;20230;-65
2022/06/17 02:56:50;;;;;;;7.50;5.57;;;17.70;99.90;;;;;;5067849;28;20199;-65
2022/06/17 02:59:23;;;;;;;9.43;5.63;;;17.70;99.90;;;;;;5070659;28;20203;-65
2022/06/17 03:01:57;;;;;;;6.43;5.50;;;17.70;99.90;;;;;;5071060;28;20204;-64
2022/06/17 03:04:29;;;;;;;5.50;5.00;;;17.70;99.90;;;;;;5053980;28;20257;-65
2022/06/17 03:07:24;;;;;;;5.80;5.30;;;17.70;99.90;;;;;;5067646;28;20206;-65
2022/06/17 03:09:53;;;;;;;7.83;5.53;;;17.80;99.90;;;;;;5076682;28;20285;-64
2022/06/17 03:12:23;;;;;;;9.27;5.83;;;17.80;99.90;;;;;;5065214;28;20565;-65
2022/06/17 03:14:57;;;;;;;9.07;5.13;;;17.90;99.90;;;;;;5069210;28;20224;-64
2022/06/17 03:17:26;;;;;;;6.03;5.53;;;17.90;99.90;;;;;;5068203;28;20198;-65
2022/06/17 03:19:58;;;;;;;5.57;4.93;;;17.90;99.90;;;;;;5068567;28;20205;-65
2022/06/17 03:22:27;;;;;;;5.83;5.27;;;17.80;99.90;;;;;;5044664;28;20205;-65
2022/06/17 03:25:04;;;;;;;7.63;5.47;;;17.80;99.90;;;;;;5066509;28;20283;-64
2022/06/17 03:27:38;;;;;;;7.70;5.47;;;17.80;99.90;;;;;;5064956;28;20202;-65
2022/06/17 03:30:10;;;;;;;7.60;5.90;;;17.80;99.90;;;;;;5064105;28;20230;-65
2022/06/17 03:32:44;;;;;;;6.20;5.60;;;17.80;99.90;;;;;;5062644;28;20196;-65
2022/06/17 03:35:19;;;;;;;6.60;5.77;;;17.80;99.90;;;;;;5063690;28;20192;-65
2022/06/17 03:37:54;;;;;;;6.17;5.30;;;17.80;99.90;;;;;;5069123;28;20204;-65
2022/06/17 03:40:30;;;;;;;7.73;5.83;;;17.80;99.90;;;;;;5071071;28;20579;-65
2022/06/17 03:43:05;;;;;;;9.13;5.73;;;17.80;99.90;;;;;;5048390;28;20192;-65
2022/06/17 03:45:43;;;;;;;9.93;5.73;;;17.70;99.90;;;;;;5067216;28;20192;-65
2022/06/17 03:48:29;;;;;;;7.40;5.40;;;17.60;99.90;;;;;;5066442;28;20259;-65
2022/06/17 03:50:57;;;;;;;6.00;5.40;;;17.60;99.90;;;;;;5069830;28;20204;-65
2022/06/17 03:53:30;;;;;;;8.20;5.07;;;17.70;99.90;;;;;;5062443;28;20255;-65
2022/06/17 03:56:04;;;;;;;6.47;5.10;;;17.60;99.90;;;;;;5067803;28;20196;-66
2022/06/17 03:58:33;;;;;;;8.73;5.40;;;17.60;99.90;;;;;;5069940;28;20195;-65
2022/06/17 04:01:06;;;;;;;8.30;5.50;;;17.70;99.90;;;;;;5066371;28;20597;-65
2022/06/17 04:03:46;;;;;;;6.70;5.40;;;17.70;99.90;;;;;;5075109;28;20719;-65
2022/06/17 04:06:18;;;;;;;5.20;4.80;;;17.70;99.90;;;;;;5071848;28;20196;-65
2022/06/17 04:08:54;;;;;;;8.30;4.57;;;17.80;99.90;;;;;;5077836;28;20283;-65
2022/06/17 04:11:27;;;;;;;5.20;4.80;;;17.80;99.90;;;;;;5057460;28;20206;-64
2022/06/17 04:13:59;;;;;;;7.80;5.53;;;17.80;99.90;;;;;;5052161;28;20215;-65
2022/06/17 04:16:34;;;;;;;6.87;4.33;;;17.80;99.90;;;;;;5068039;28;20200;-65
2022/06/17 04:19:04;;;;;;;7.43;4.80;;;17.90;99.90;;;;;;5054346;28;20198;-65
2022/06/17 04:21:51;;;;;;;5.63;4.83;;;17.90;99.90;;;;;;5072638;28;20200;-65
2022/06/17 04:24:23;;;;;;;7.63;5.30;;;17.90;99.90;;;;;;5062371;28;20187;-65
2022/06/17 04:26:56;;;;;;;9.70;4.77;;;18.00;99.90;;;;;;5073098;28;20245;-65
2022/06/17 04:29:34;;;;;;;5.63;4.60;;;18.00;99.90;;;;;;5071916;28;20225;-65
2022/06/17 04:32:11;;;;;;;7.17;4.70;;;18.00;99.90;;;;;;5054273;28;20289;-65
2022/06/17 04:34:40;;;;;;;6.90;5.00;;;18.00;99.90;;;;;;5065748;28;20227;-65
2022/06/17 04:37:19;;;;;;;5.27;4.77;;;18.10;99.90;;;;;;5075291;28;20198;-62
2022/06/17 04:39:52;;;;;;;4.90;4.50;;;18.20;99.90;;;;;;5075275;28;20189;-62
2022/06/17 04:42:34;;;;;;;8.73;4.97;;;18.20;99.90;;;;;;5074540;28;20222;-62
2022/06/17 04:45:03;;;;;;;8.40;5.30;;;18.30;99.90;;;;;;5067756;28;20290;-62
2022/06/17 04:47:33;;;;;;;11.47;4.93;;;18.30;99.90;;;;;;5079966;28;20193;-65
2022/06/17 04:50:07;;;;;;;9.73;4.73;;;18.30;99.90;;;;;;5095933;28;20192;-65
2022/06/17 04:52:39;;;;;;;7.83;4.83;;;18.30;99.90;;;;;;5056253;28;20207;-65
2022/06/17 04:55:15;;;;;;;8.87;4.73;;;18.40;99.90;;;;;;5051063;28;20214;-65
2022/06/17 04:57:45;;;;;;;10.10;5.23;;;18.50;99.90;;;;;;5064771;28;20192;-65
2022/06/17 05:00:19;;;;;;;5.33;4.83;;;18.50;99.90;;;;;;5071779;28;20199;-64
2022/06/17 05:02:48;;;;;;;5.10;4.67;;;18.50;99.90;;;;;;5059360;28;20552;-64
2022/06/17 05:05:25;;;;;;;5.93;4.70;;;18.60;99.90;;;;;;5071820;28;20694;-65
2022/06/17 05:07:55;;;;;;;7.67;4.77;;;18.60;99.90;;;;;;5038941;28;20188;-64
2022/06/17 05:10:34;;;;;;;9.10;4.60;;;18.50;99.90;;;;;;5067026;28;20265;-65
2022/06/17 05:13:11;;;;;;;6.43;4.43;;;18.50;99.90;;;;;;5088308;28;20233;-65
2022/06/17 05:15:39;;;;;;;4.77;4.33;;;18.50;99.90;;;;;;5067945;28;20225;-64
2022/06/17 05:18:09;;;;;;;4.63;4.23;;;18.50;99.90;;;;;;5071063;28;20196;-65
2022/06/17 05:20:39;;;;;;;6.90;4.53;;;18.50;99.90;;;;;;5070381;28;20611;-65
2022/06/17 05:23:09;;;;;;;8.30;4.70;;;18.50;99.90;;;;;;5061171;28;20188;-65
2022/06/17 05:25:43;;;;;;;7.30;4.43;;;18.50;99.90;;;;;;5065345;28;20199;-65
2022/06/17 05:28:15;;;;;;;5.97;4.00;;;18.60;99.90;;;;;;5068502;28;20187;-65
2022/06/17 05:30:48;;;;;;;7.43;4.30;;;18.70;99.90;;;;;;5072839;28;20286;-65
2022/06/17 05:33:24;;;;;;;8.60;4.50;;;18.70;99.90;;;;;;5047910;28;20196;-65
2022/06/17 05:35:52;;;;;;;4.83;4.33;;;18.70;99.90;;;;;;5067918;28;20249;-65
2022/06/17 05:38:21;;;;;;;7.00;4.27;;;18.70;99.90;;;;;;5068780;28;20203;-65
2022/06/17 05:40:49;;;;;;;4.53;4.13;;;18.80;99.90;;;;;;5069329;28;20629;-63
2022/06/17 05:43:20;;;;;;;7.17;4.10;;;18.80;99.90;;;;;;5068047;28;20196;-64
2022/06/17 05:45:48;;;;;;;8.73;4.30;;;18.90;99.90;;;;;;5064107;28;20278;-65
2022/06/17 05:48:17;;;;;;;6.03;4.13;;;19.00;99.90;;;;;;5067618;28;20303;-64
2022/06/17 05:50:45;;;;;;;13.97;4.87;;;19.00;99.90;;;;;;5066849;28;20226;-64
2022/06/17 05:53:14;;;;;;;5.00;4.40;;;19.10;99.90;;;;;;5065816;28;20200;-64
2022/06/17 05:55:43;;;;;;;8.10;4.20;;;19.20;99.90;;;;;;5060325;28;20221;-64
2022/06/17 05:58:11;;;;;;;11.90;4.90;;;19.40;99.90;;;;;;5059326;28;20195;-64
2022/06/17 06:00:41;;;;;;;4.07;3.80;;;19.50;99.90;;;;;;5064654;28;20227;-64
2022/06/17 06:03:22;;;;;;;4.57;3.97;;;19.60;99.90;;;;;;5045602;28;20746;-64
2022/06/17 06:05:51;;;;;;;7.03;4.23;;;19.80;99.90;;;;;;5064636;28;20188;-64
2022/06/17 06:08:20;;;;;;;6.07;4.30;;;20.00;99.90;;;;;;5062779;28;20669;-64
2022/06/17 06:10:48;;;;;;;8.73;4.27;;;20.10;99.90;;;;;;5050206;28;20311;-64
2022/06/17 06:13:22;;;;;;;7.67;4.80;;;20.10;99.90;;;;;;5066373;28;20246;-64
2022/06/17 06:15:54;;;;;;;6.90;4.50;;;20.30;99.90;;;;;;5067004;28;20210;-64
2022/06/17 06:18:25;;;;;;;5.80;5.10;;;20.40;99.90;;;;;;5078810;28;20201;-64
2022/06/17 06:20:56;;;;;;;7.63;4.77;;;20.50;99.90;;;;;;5046091;28;20560;-64
2022/06/17 06:23:25;;;;;;;7.67;4.37;;;20.60;99.90;;;;;;5070727;28;20719;-64
2022/06/17 06:25:53;;;;;;;6.23;4.10;;;20.70;99.90;;;;;;5058832;28;20193;-64
2022/06/17 06:28:23;;;;;;;9.57;4.57;;;20.90;99.90;;;;;;5078076;28;20304;-63
2022/06/17 06:30:56;;;;;;;7.83;4.67;;;21.00;99.90;;;;;;5063871;28;20192;-63
2022/06/17 06:33:25;;;;;;;15.63;4.70;;;21.20;99.90;;;;;;5046632;28;20282;-63
2022/06/17 06:35:53;;;;;;;5.57;5.07;;;21.20;99.90;;;;;;5044598;28;20247;-63
2022/06/17 06:38:43;;;;;;;7.17;4.50;;;21.20;99.90;;;;;;5065756;28;20197;-64
2022/06/17 06:41:12;;;;;;;13.17;4.77;;;21.30;99.90;;;;;;5066091;28;20192;-63
2022/06/17 06:43:42;;;;;;;9.10;4.73;;;21.30;99.90;;;;;;5072212;28;20203;-64
2022/06/17 06:46:15;;;;;;;8.70;4.37;;;21.50;99.90;;;;;;5069339;28;20251;-63
2022/06/17 06:48:48;;;;;;;6.80;4.90;;;21.60;99.90;;;;;;5071443;28;20228;-64
2022/06/17 06:51:18;;;;;;;5.90;4.87;;;21.70;99.90;;;;;;5068403;28;20274;-64
2022/06/17 06:53:47;;;;;;;7.17;4.60;;;21.80;99.90;;;;;;5068719;28;20228;-64
2022/06/17 06:56:16;;;;;;;8.60;4.80;;;21.80;99.90;;;;;;5049793;28;20223;-63
2022/06/17 06:58:45;;;;;;;7.60;4.50;;;21.80;99.90;;;;;;5059403;28;20227;-63
2022/06/17 07:01:14;;;;;;;17.17;4.80;;;22.00;99.90;;;;;;5066413;28;20195;-64
2022/06/17 07:03:43;;;;;;;9.43;4.60;;;22.10;99.90;;;;;;5062093;28;20232;-64
2022/06/17 07:06:14;;;;;;;5.67;4.40;;;22.20;99.90;;;;;;5066160;28;20608;-64
2022/06/17 07:08:44;;;;;;;11.93;4.33;;;22.40;99.90;;;;;;5068078;28;20243;-64
2022/06/17 07:11:15;;;;;;;7.43;4.00;;;22.50;99.90;;;;;;5064477;28;20255;-63
2022/06/17 07:13:44;;;;;;;5.17;4.17;;;22.60;99.90;;;;;;5067270;28;20204;-64
2022/06/17 07:16:15;;;;;;;5.57;3.73;;;22.70;99.90;;;;;;5063042;28;20204;-64
2022/06/17 07:18:43;;;;;;;5.03;3.77;;;22.80;99.90;;;;;;5071780;28;20200;-64
2022/06/17 07:21:14;;;;;;;7.27;3.90;;;23.00;99.90;;;;;;5051469;28;20204;-63
2022/06/17 07:23:45;;;;;;;8.40;3.20;;;23.00;99.90;;;;;;5051531;28;20196;-64
2022/06/17 07:26:17;;;;;;;6.63;3.53;;;23.10;99.90;;;;;;5070688;28;20279;-64
2022/06/17 07:28:47;;;;;;;7.67;3.50;;;23.20;99.90;;;;;;5071152;28;20609;-64
2022/06/17 07:31:17;;;;;;;5.50;3.33;;;23.30;99.90;;;;;;5066070;28;20206;-64
2022/06/17 07:33:46;;;;;;;7.80;3.30;;;23.50;99.90;;;;;;5069794;28;20636;-64
2022/06/17 07:39:53;;;;;;;6.03;3.37;;;23.50;99.90;;;;;;5071101;28;20640;-65
2022/06/17 07:41:53;;;;;;;5.20;3.30;;;23.80;99.90;;;;;;5061976;28;20233;-64
2022/06/17 07:44:21;;;;;;;7.40;3.47;;;23.90;99.90;;;;;;5071636;28;20760;-64
2022/06/17 07:46:51;;;;;;;4.13;3.00;;;24.00;99.90;;;;;;5072723;28;20643;-64
2022/06/17 07:49:20;;;;;;;6.27;3.40;;;24.20;99.90;;;;;;5072008;28;20275;-64
2022/06/17 07:51:49;;;;;;;7.17;3.40;;;24.30;99.90;;;;;;5050331;28;20670;-65
2022/06/17 07:54:17;;;;;;;5.83;3.10;;;24.20;99.90;;;;;;5067944;28;20268;-64
2022/06/17 07:56:54;;;;;;;4.53;3.23;;;24.20;99.90;;;;;;5068426;28;20205;-64
2022/06/17 07:59:23;;;;;;;6.43;3.13;;;24.40;99.90;;;;;;5068778;28;20206;-64
2022/06/17 08:01:53;;;;;;;9.37;3.43;;;24.50;99.90;;;;;;5067662;28;20251;-65
2022/06/17 08:04:21;;;;;;;10.20;3.30;;;24.60;99.90;;;;;;5072475;28;20242;-64
2022/06/17 08:06:50;;;;;;;3.50;2.70;;;24.60;99.90;;;;;;5069053;28;20222;-65
2022/06/17 08:09:21;;;;;;;13.67;3.20;;;24.50;99.90;;;;;;5053928;28;20202;-64
2022/06/17 08:11:51;;;;;;;4.13;2.60;;;24.50;99.90;;;;;;5062249;28;20223;-64
2022/06/17 08:14:19;;;;;;;5.87;2.60;;;24.70;99.90;;;;;;5074828;28;20224;-64
2022/06/17 08:16:48;;;;;;;3.10;2.67;;;24.90;99.90;;;;;;5071336;28;20225;-64
2022/06/17 08:19:18;;;;;;;4.63;3.23;;;24.90;99.90;;;;;;5043667;28;20240;-63
2022/06/17 08:21:46;;;;;;;3.93;2.83;;;25.10;99.90;;;;;;5068720;28;20203;-64
2022/06/17 08:24:30;;;;;;;3.30;2.70;;;25.20;99.90;;;;;;5063494;28;20194;-64
2022/06/17 08:26:59;;;;;;;2.70;2.60;;;25.30;99.90;;;;;;5070106;28;20195;-65
2022/06/17 08:29:28;;;;;;;3.07;2.80;;;25.40;99.90;;;;;;5049817;28;20212;-64
2022/06/17 08:35:05;;;;;;;3.10;2.70;;;25.70;99.90;;;;;;5082651;28;20257;-64
2022/06/17 08:37:34;;;;;;;3.73;2.97;;;25.90;99.90;;;;;;5047051;28;20296;-64
2022/06/17 08:40:18;;;;;;;3.10;2.80;;;26.00;99.90;;;;;;5070505;28;20195;-62
2022/06/17 08:42:54;;;;;;;4.37;2.87;;;26.20;99.90;;;;;;5065295;28;20202;-62
2022/06/17 08:45:32;;;;;;;3.10;2.80;;;26.30;99.90;;;;;;5066403;28;20210;-63
2022/06/17 08:48:16;;;;;;;4.77;3.03;;;26.30;99.90;;;;;;5067955;28;20227;-63
2022/06/17 08:51:12;;;;;;;2.73;2.40;;;26.20;99.90;;;;;;5064349;28;20193;-63
2022/06/17 08:53:55;;;;;;;4.77;2.70;;;26.50;99.90;;;;;;5066741;28;20204;-62
2022/06/17 08:56:33;;;;;;;3.20;2.90;;;26.50;99.90;;;;;;5085719;28;20219;-62
2022/06/17 08:59:13;;;;;;;7.97;2.90;;;26.60;99.90;;;;;;5043455;28;20204;-63
2022/06/17 09:01:51;;;;;;;7.87;2.83;;;26.80;99.90;;;;;;5073097;28;20208;-62
2022/06/17 09:04:45;;;;;;;3.40;2.67;;;26.70;99.90;;;;;;5071635;28;20234;-63
2022/06/17 09:07:23;;;;;;;4.33;2.60;;;26.80;99.90;;;;;;5070382;28;20192;-62
2022/06/17 09:10:06;;;;;;;3.57;2.47;;;27.00;99.90;;;;;;5064028;28;20660;-62
2022/06/17 09:12:50;;;;;;;3.23;2.17;;;26.90;99.90;;;;;;5047675;28;20242;-62
2022/06/17 09:15:26;;;;;;;3.20;2.90;;;27.10;99.90;;;;;;5069491;28;20189;-63
2022/06/17 09:18:01;;;;;;;4.20;2.63;;;27.60;99.90;;;;;;5070093;28;20251;-63
2022/06/17 09:20:35;;;;;;;2.70;2.50;;;27.50;99.90;;;;;;5055853;28;20199;-62
2022/06/17 09:23:14;;;;;;;2.60;2.40;;;27.30;99.90;;;;;;5064961;28;20204;-63
2022/06/17 09:25:44;;;;;;;7.67;3.93;;;27.10;99.90;;;;;;5073426;28;20550;-63
2022/06/17 09:31:42;;;;;;;4.10;2.50;;;27.40;99.90;;;;;;5074084;28;20196;-62
2022/06/17 09:34:14;;;;;;;5.50;2.50;;;27.80;99.90;;;;;;5068939;28;20564;-62
2022/06/17 09:36:49;;;;;;;2.40;2.30;;;27.90;99.90;;;;;;5066801;28;20236;-62
2022/06/17 09:39:30;;;;;;;3.67;2.78;;;28.10;99.90;;;;;;5072954;28;20681;-63
2022/06/17 09:42:02;;;;;;;3.67;2.10;;;27.80;99.90;;;;;;5069933;28;20303;-63
2022/06/17 09:44:39;;;;;;;2.67;2.47;;;27.60;99.90;;;;;;5065249;28;20298;-63
2022/06/17 09:47:16;;;;;;;2.30;2.10;;;27.50;99.90;;;;;;5071432;28;20276;-63
2022/06/17 09:49:51;;;;;;;4.47;2.40;;;27.70;99.90;;;;;;5070150;28;20646;-62
2022/06/17 09:52:22;;;;;;;3.88;2.53;;;27.90;99.90;;;;;;5068849;28;20720;-63
2022/06/17 09:54:56;;;;;;;5.75;2.58;;;28.20;99.90;;;;;;5070036;28;20201;-63
2022/06/17 09:57:30;;;;;;;2.55;2.45;;;28.30;99.90;;;;;;5067479;28;20200;-63
2022/06/17 10:00:03;;;;;;;4.80;2.35;;;28.50;99.90;;;;;;5068502;28;20649;-62
2022/06/17 10:02:40;;;;;;;2.40;2.30;;;28.90;99.90;;;;;;5061286;28;20234;-62
2022/06/17 10:05:15;;;;;;;7.20;2.65;;;28.90;99.90;;;;;;5043682;28;20242;-63
2022/06/17 10:07:52;;;;;;;3.20;2.35;;;28.80;99.90;;;;;;5059092;28;20194;-62
2022/06/17 10:10:32;;;;;;;4.90;2.70;;;28.90;99.90;;;;;;5067332;28;20300;-63
2022/06/17 10:13:39;;;;;;;5.15;2.20;;;28.90;99.90;;;;;;5049262;28;20208;-61
2022/06/17 10:19:21;;;;;;;3.85;2.00;;;29.30;99.90;;;;;;5067275;28;20256;-62
2022/06/17 10:21:59;;;;;;;4.22;1.90;;;29.60;99.90;;;;;;5063046;28;20190;-63
2022/06/17 10:24:39;;;;;;;3.17;2.10;;;29.90;99.90;;;;;;5064758;28;20289;-62
2022/06/17 10:27:24;;;;;;;4.65;1.73;;;29.70;99.90;;;;;;5062140;28;20207;-64
2022/06/17 10:30:17;;;;;;;7.80;2.13;;;29.60;99.90;;;;;;5065848;28;20237;-64
2022/06/17 10:32:48;;;;;;;3.05;2.00;;;30.10;99.90;;;;;;5059807;28;20213;-63
2022/06/17 10:35:24;;;;;;;4.70;2.00;;;30.20;99.90;;;;;;5065704;28;20200;-63
2022/06/17 10:37:54;;;;;;;7.20;2.17;;;30.30;99.90;;;;;;5067705;28;20219;-63
2022/06/17 10:40:26;;;;;;;2.00;1.90;;;30.20;99.90;;;;;;5067660;28;20623;-63
2022/06/17 10:43:04;;;;;;;2.22;2.10;;;30.10;99.90;;;;;;5065755;28;20271;-62
2022/06/17 10:45:34;;;;;;;2.30;2.20;;;30.20;99.90;;;;;;5082929;28;20206;-63
2022/06/17 10:48:10;;;;;;;2.55;2.35;;;30.50;99.90;;;;;;5067916;28;20200;-62
2022/06/17 10:50:38;;;;;;;3.10;1.83;;;30.70;99.90;;;;;;5067095;28;20221;-63
2022/06/17 10:53:14;;;;;;;3.88;2.10;;;30.60;99.90;;;;;;5053925;28;20192;-62
2022/06/17 10:55:46;;;;;;;5.85;2.28;;;30.50;99.90;;;;;;5064299;28;20237;-62
2022/06/17 10:58:24;;;;;;;3.83;2.10;;;30.80;99.90;;;;;;5068919;28;20239;-63
2022/06/17 11:00:56;;;;;;;4.10;1.80;;;31.10;99.90;;;;;;5050093;28;20284;-62
2022/06/17 11:03:29;;;;;;;5.95;1.77;;;31.30;99.90;;;;;;5052209;28;20354;-63
2022/06/17 11:06:02;;;;;;;5.10;1.77;;;31.30;99.90;;;;;;5050397;28;20283;-63
2022/06/17 11:08:35;;;;;;;2.05;1.70;;;31.20;99.90;;;;;;5067889;28;20283;-61
2022/06/17 11:13:55;;;;;;;3.17;2.17;;;31.40;99.90;;;;;;5064955;28;20199;-62
2022/06/17 11:16:26;;;;;;;8.25;2.22;;;31.30;99.90;;;;;;5054329;28;20192;-62
2022/06/17 11:19:00;;;;;;;3.90;2.28;;;31.30;99.90;;;;;;5052825;28;20220;-62
2022/06/17 11:21:32;;;;;;;4.32;2.15;;;31.10;99.90;;;;;;5071237;28;20192;-63
2022/06/17 11:24:04;;;;;;;2.13;2.03;;;31.10;99.90;;;;;;5067054;28;20538;-62
2022/06/17 11:26:36;;;;;;;2.40;2.20;;;31.00;99.90;;;;;;5069850;28;20656;-62
2022/06/17 11:29:21;;;;;;;2.67;2.10;;;31.10;99.90;;;;;;5071513;28;20196;-63
2022/06/17 11:31:49;;;;;;;4.28;2.15;;;31.20;99.90;;;;;;5054909;28;20573;-62
2022/06/17 11:34:25;;;;;;;2.40;2.30;;;31.00;99.90;;;;;;5064343;28;20201;-64
2022/06/17 11:36:59;;;;;;;5.80;2.20;;;30.90;99.90;;;;;;5064369;28;20838;-64
2022/06/17 11:39:33;;;;;;;3.33;2.45;;;30.80;99.90;;;;;;5067984;28;20632;-61
2022/06/17 11:42:13;;;;;;;2.20;2.10;;;30.70;99.90;;;;;;5045795;28;20218;-61
2022/06/17 11:44:54;;;;;;;2.55;2.13;;;30.80;99.90;;;;;;5067399;28;20636;-62
2022/06/17 11:47:25;;;;;;;3.58;2.60;;;30.70;99.90;;;;;;5065782;28;20691;-61
2022/06/17 11:49:56;;;;;;;4.05;2.15;;;30.80;99.90;;;;;;5067995;28;20689;-63
2022/06/17 11:52:29;;;;;;;2.00;1.90;;;30.90;99.90;;;;;;5061821;28;20198;-63
2022/06/17 11:54:58;;;;;;;3.67;2.15;;;31.10;99.90;;;;;;5053998;28;20671;-62
2022/06/17 11:57:30;;;;;;;4.07;2.03;;;31.30;99.90;;;;;;5069921;28;20690;-62
2022/06/17 12:00:05;;;;;;;3.45;2.42;;;31.30;99.90;;;;;;5042399;28;20191;-62
2022/06/17 12:02:35;;;;;;;2.20;2.10;;;31.00;99.90;;;;;;5061172;28;20256;-62
2022/06/17 12:05:10;;;;;;;2.92;2.15;;;31.10;99.90;;;;;;5060476;28;20203;-62
2022/06/17 12:07:49;;;;;;;2.97;2.10;;;31.10;99.90;;;;;;5060562;28;20195;-62
2022/06/17 12:10:47;;;;;;;3.53;2.22;;;31.20;99.90;;;;;;5067751;28;20655;-62
2022/06/17 12:13:35;;;;;;;1.90;1.80;;;31.20;99.90;;;;;;5025446;28;20210;-62
2022/06/17 12:16:14;;;;;;;2.58;1.98;;;31.10;99.90;;;;;;5062287;28;20218;-62
2022/06/17 12:18:47;;;;;;;4.15;2.13;;;31.00;99.90;;;;;;5042997;28;20218;-61
2022/06/17 12:21:30;;;;;;;2.38;2.03;;;30.80;99.90;;;;;;5059646;28;20201;-62
2022/06/17 12:24:09;;;;;;;2.20;2.10;;;30.70;99.90;;;;;;5076189;28;20209;-61
2022/06/17 12:26:53;;;;;;;2.17;2.00;;;30.70;99.90;;;;;;5066472;28;20231;-62
2022/06/17 12:29:26;;;;;;;4.68;2.30;;;30.70;99.90;;;;;;5067396;28;20215;-62
2022/06/17 12:32:05;;;;;;;2.55;1.73;;;30.80;99.90;;;;;;5051595;28;20289;-62
2022/06/17 12:34:39;;;;;;;2.03;1.67;;;30.80;99.90;;;;;;5056928;28;20214;-61
2022/06/17 12:37:13;;;;;;;1.60;1.60;;;30.90;99.90;;;;;;5068210;28;20280;-62
2022/06/17 12:39:48;;;;;;;3.40;1.98;;;31.00;99.90;;;;;;5071497;28;20215;-61
2022/06/17 12:42:27;;;;;;;4.90;2.10;;;31.00;99.90;;;;;;5067230;28;20192;-62
2022/06/17 12:45:04;;;;;;;2.28;2.05;;;31.00;99.90;;;;;;5066280;28;20199;-60
2022/06/17 12:47:44;;;;;;;3.35;1.80;;;31.10;99.90;;;;;;5069706;28;20218;-61
2022/06/17 12:53:16;;;;;;;3.28;1.90;;;31.00;99.90;;;;;;5067148;28;20208;-62
2022/06/17 12:56:04;;;;;;;1.52;1.52;;;31.00;99.90;;;;;;5068033;28;20742;-62
2022/06/17 12:59:13;;;;;;;2.38;1.73;;;31.10;99.90;;;;;;5042843;28;20250;-62
2022/06/17 13:01:51;;;;;;;5.18;1.75;;;31.00;99.60;;;;;;5059489;28;20206;-62
2022/06/17 13:04:53;;;;;;;6.22;1.85;;;31.20;99.00;;;;;;5064199;28;20340;-62
2022/06/17 13:07:29;;;;;;;3.28;2.00;;;31.40;99.90;;;;;;5058405;28;20299;-62
2022/06/17 13:12:56;;;;;;;4.30;1.95;;;31.50;99.90;;;;;;5067032;28;20594;-62
2022/06/17 13:15:28;;;;;;;1.70;1.60;;;31.40;99.90;;;;;;5066150;28;20318;-61
2022/06/17 13:18:01;;;;;;;2.20;1.95;;;31.50;99.90;;;;;;5060868;28;20522;-62
2022/06/17 13:20:36;;;;;;;3.30;1.85;;;31.60;99.90;;;;;;5068652;28;20205;-61
2022/06/17 13:23:12;;;;;;;1.88;1.77;;;31.70;99.60;;;;;;5073094;28;20275;-62
2022/06/17 13:25:49;;;;;;;5.10;1.90;;;31.80;99.90;;;;;;5049496;28;20201;-62
2022/06/17 13:28:35;;;;;;;3.03;1.83;;;31.90;99.40;;;;;;5037304;28;20219;-62
2022/06/17 13:31:09;;;;;;;4.13;1.80;;;31.80;98.80;;;;;;5064101;28;20212;-62
2022/06/17 13:33:45;;;;;;;2.33;1.75;;;31.90;99.10;;;;;;5053313;28;20196;-61
2022/06/17 13:36:20;;;;;;;1.55;1.52;;;31.90;99.90;;;;;;5070300;28;20209;-62
2022/06/17 13:39:11;;;;;;;4.53;1.65;;;31.80;98.40;;;;;;5070689;28;20296;-62
2022/06/17 13:41:44;;;;;;;2.25;1.60;;;31.70;99.60;;;;;;5068500;28;20205;-62
2022/06/17 13:44:22;;;;;;;1.90;1.27;;;31.60;98.90;;;;;;5067378;28;20529;-62